createdAt,value
2022-11-27T00:01:12.702Z,4.60
2022-11-27T00:03:40.881Z,4.50
2022-11-27T00:06:08.784Z,4.50
2022-11-27T00:08:35.600Z,4.50
2022-11-27T00:11:11.192Z,4.50
2022-11-27T00:13:37.980Z,4.50
2022-11-27T00:16:06.015Z,4.60
2022-11-27T00:18:34.029Z,4.70
2022-11-27T00:21:10.472Z,4.70
2022-11-27T00:23:37.699Z,4.80
2022-11-27T00:26:06.255Z,4.80
2022-11-27T00:28:33.405Z,4.80
2022-11-27T00:31:05.919Z,4.80
2022-11-27T00:33:33.588Z,4.80
2022-11-27T00:36:04.631Z,4.80
2022-11-27T00:38:35.939Z,4.80
2022-11-27T00:41:06.533Z,4.80
2022-11-27T00:43:43.660Z,4.80
2022-11-27T00:46:13.146Z,4.80
2022-11-27T00:48:40.056Z,4.80
2022-11-27T00:51:08.939Z,4.80
2022-11-27T00:53:35.937Z,4.70
2022-11-27T00:56:03.415Z,4.70
2022-11-27T00:58:30.754Z,4.70
2022-11-27T01:01:03.855Z,4.70
2022-11-27T01:03:31.676Z,4.70
2022-11-27T01:06:03.949Z,4.70
2022-11-27T01:08:30.785Z,4.70
2022-11-27T01:10:59.067Z,4.70
2022-11-27T01:13:34.923Z,4.70
2022-11-27T01:16:10.317Z,4.80
2022-11-27T01:18:39.156Z,4.80
2022-11-27T01:21:06.865Z,4.80
2022-11-27T01:23:34.019Z,4.90
2022-11-27T01:26:03.314Z,4.90
2022-11-27T01:28:30.690Z,4.90
2022-11-27T01:30:57.590Z,4.90
2022-11-27T01:33:24.877Z,4.90
2022-11-27T01:36:00.152Z,4.90
2022-11-27T01:38:27.418Z,4.90
2022-11-27T01:41:06.371Z,4.90
2022-11-27T01:43:48.507Z,4.90
2022-11-27T01:46:36.455Z,4.90
2022-11-27T01:49:12.434Z,4.90
2022-11-27T01:51:59.495Z,5.00
2022-11-27T01:54:29.986Z,5.00
2022-11-27T01:57:01.979Z,5.10
2022-11-27T01:59:29.436Z,5.10
2022-11-27T02:01:56.406Z,5.00
2022-11-27T02:04:23.317Z,5.00
2022-11-27T02:06:50.164Z,5.00
2022-11-27T02:09:17.100Z,5.00
2022-11-27T02:11:52.276Z,4.90
2022-11-27T02:14:54.336Z,4.90
2022-11-27T02:18:00.287Z,5.00
2022-11-27T02:20:56.878Z,5.10
2022-11-27T02:23:56.200Z,5.10
2022-11-27T02:26:41.726Z,5.20
2022-11-27T02:29:12.018Z,5.20
2022-11-27T02:31:41.740Z,5.20
2022-11-27T02:34:20.833Z,5.30
2022-11-27T02:37:15.445Z,5.30
2022-11-27T02:39:58.775Z,5.20
2022-11-27T02:42:29.119Z,5.20
2022-11-27T02:45:09.660Z,5.20
2022-11-27T02:47:40.048Z,5.10
2022-11-27T02:50:12.456Z,5.20
2022-11-27T02:52:41.140Z,5.10
2022-11-27T02:55:14.621Z,5.10
2022-11-27T02:57:42.933Z,5.10
2022-11-27T03:00:11.902Z,5.10
2022-11-27T03:02:48.386Z,5.20
2022-11-27T03:05:19.798Z,5.10
2022-11-27T03:07:54.291Z,5.10
2022-11-27T03:10:30.406Z,5.20
2022-11-27T03:12:59.030Z,5.30
2022-11-27T03:15:29.181Z,5.30
2022-11-27T03:18:07.866Z,5.40
2022-11-27T03:20:41.183Z,5.40
2022-11-27T03:23:08.049Z,5.40
2022-11-27T03:25:34.968Z,5.30
2022-11-27T03:28:06.109Z,5.40
2022-11-27T03:30:32.957Z,5.30
2022-11-27T03:33:01.064Z,5.20
2022-11-27T03:35:28.534Z,5.10
2022-11-27T03:37:56.372Z,5.00
2022-11-27T03:40:30.555Z,5.00
2022-11-27T03:43:25.725Z,5.10
2022-11-27T03:46:02.467Z,5.10
2022-11-27T03:48:29.328Z,5.20
2022-11-27T03:51:04.706Z,5.30
2022-11-27T03:53:40.563Z,5.30
2022-11-27T03:56:17.015Z,5.40
2022-11-27T03:58:54.640Z,5.50
2022-11-27T04:01:24.865Z,5.50
2022-11-27T04:03:51.886Z,5.60
2022-11-27T04:06:18.932Z,5.60
2022-11-27T04:08:47.375Z,5.50
2022-11-27T04:11:14.975Z,5.60
2022-11-27T04:13:42.121Z,5.60
2022-11-27T04:16:09.225Z,5.60
2022-11-27T04:18:36.215Z,5.60
2022-11-27T04:21:03.810Z,5.60
2022-11-27T04:23:30.687Z,5.60
2022-11-27T04:25:57.564Z,5.70
2022-11-27T04:28:24.366Z,5.90
2022-11-27T04:30:53.384Z,5.60
2022-11-27T04:33:20.569Z,5.60
2022-11-27T04:35:47.388Z,5.60
2022-11-27T04:38:14.312Z,5.60
2022-11-27T04:40:41.124Z,5.60
2022-11-27T04:43:07.958Z,5.70
2022-11-27T04:45:34.834Z,5.70
2022-11-27T04:48:01.687Z,5.70
2022-11-27T04:50:28.548Z,5.70
2022-11-27T04:52:55.362Z,5.70
2022-11-27T04:55:22.408Z,5.70
2022-11-27T04:57:49.199Z,5.70
2022-11-27T05:00:16.567Z,5.70
2022-11-27T05:02:43.466Z,5.70
2022-11-27T05:05:10.441Z,5.70
2022-11-27T05:07:37.525Z,5.80
2022-11-27T05:10:05.999Z,5.80
2022-11-27T05:12:32.835Z,5.80
2022-11-27T05:15:03.152Z,5.80
2022-11-27T05:17:31.512Z,5.80
2022-11-27T05:19:59.418Z,5.80
2022-11-27T05:22:26.235Z,5.90
2022-11-27T05:24:53.137Z,5.90
2022-11-27T05:27:19.986Z,5.90
2022-11-27T05:29:47.119Z,5.90
2022-11-27T05:32:14.092Z,5.90
2022-11-27T05:34:41.147Z,5.90
2022-11-27T05:37:08.241Z,5.90
2022-11-27T05:39:35.483Z,5.90
2022-11-27T05:42:02.286Z,5.90
2022-11-27T05:44:29.235Z,5.90
2022-11-27T05:46:57.292Z,6.00
2022-11-27T05:49:24.276Z,5.90
2022-11-27T05:51:51.894Z,5.80
2022-11-27T05:54:19.561Z,5.80
2022-11-27T05:56:46.955Z,5.80
2022-11-27T05:59:14.073Z,5.80
2022-11-27T06:01:40.955Z,5.80
2022-11-27T06:04:07.801Z,5.70
2022-11-27T06:06:34.610Z,5.70
2022-11-27T06:09:01.427Z,5.70
2022-11-27T06:11:28.282Z,5.70
2022-11-27T06:13:55.103Z,5.70
2022-11-27T06:16:24.100Z,5.80
2022-11-27T06:18:55.592Z,5.80
2022-11-27T06:21:24.270Z,5.90
2022-11-27T06:23:55.646Z,5.90
2022-11-27T06:26:25.787Z,5.90
2022-11-27T06:28:53.563Z,5.80
2022-11-27T06:31:23.514Z,5.80
2022-11-27T06:33:52.073Z,5.80
2022-11-27T06:36:20.431Z,5.90
2022-11-27T06:38:47.242Z,5.90
2022-11-27T06:41:16.643Z,6.10
2022-11-27T06:43:44.245Z,6.10
2022-11-27T06:46:15.501Z,6.10
2022-11-27T06:48:44.343Z,6.10
2022-11-27T06:51:14.303Z,6.10
2022-11-27T06:53:42.185Z,6.00
2022-11-27T06:56:13.651Z,6.00
2022-11-27T06:58:41.168Z,6.00
2022-11-27T07:01:12.372Z,6.00
2022-11-27T07:03:40.041Z,6.00
2022-11-27T07:06:09.567Z,6.00
2022-11-27T07:08:36.820Z,6.00
2022-11-27T07:11:10.308Z,6.00
2022-11-27T07:13:37.104Z,5.90
2022-11-27T07:16:10.247Z,5.90
2022-11-27T07:18:48.482Z,6.00
2022-11-27T07:21:16.124Z,6.00
2022-11-27T07:23:43.189Z,5.90
2022-11-27T07:26:12.804Z,6.00
2022-11-27T07:28:40.390Z,5.90
2022-11-27T07:31:07.273Z,6.00
2022-11-27T07:33:34.145Z,6.00
2022-11-27T07:36:04.379Z,6.00
2022-11-27T07:38:31.245Z,6.00
2022-11-27T07:41:02.847Z,6.10
2022-11-27T07:43:30.909Z,6.20
2022-11-27T07:45:57.964Z,6.30
2022-11-27T07:48:25.076Z,6.40
2022-11-27T07:50:51.986Z,6.30
2022-11-27T07:53:18.805Z,6.30
2022-11-27T07:55:45.728Z,6.30
2022-11-27T07:58:12.651Z,6.40
2022-11-27T08:00:39.726Z,6.40
2022-11-27T08:03:06.718Z,6.40
2022-11-27T08:05:37.407Z,6.50
2022-11-27T08:08:05.078Z,6.50
2022-11-27T08:10:35.746Z,6.40
2022-11-27T08:13:02.589Z,6.50
2022-11-27T08:15:29.450Z,6.50
2022-11-27T08:17:56.269Z,6.60
2022-11-27T08:20:23.262Z,6.60
2022-11-27T08:22:50.172Z,6.60
2022-11-27T08:25:17.321Z,6.60
2022-11-27T08:27:44.360Z,6.50
2022-11-27T08:30:11.738Z,6.50
2022-11-27T08:32:40.117Z,6.50
2022-11-27T08:35:07.810Z,6.50
2022-11-27T08:37:35.761Z,6.50
2022-11-27T08:40:03.409Z,6.50
2022-11-27T08:42:30.481Z,6.50
2022-11-27T08:44:57.342Z,6.60
2022-11-27T08:47:24.147Z,6.70
2022-11-27T08:49:50.995Z,6.60
2022-11-27T08:52:18.199Z,6.70
2022-11-27T08:54:45.081Z,6.60
2022-11-27T08:57:11.918Z,6.60
2022-11-27T08:59:38.741Z,6.50
2022-11-27T09:02:05.607Z,6.50
2022-11-27T09:04:32.460Z,6.40
2022-11-27T09:06:59.413Z,6.50
2022-11-27T09:09:26.257Z,6.40
2022-11-27T09:11:54.843Z,6.50
2022-11-27T09:14:21.726Z,6.50
2022-11-27T09:16:48.672Z,6.50
2022-11-27T09:19:15.809Z,6.40
2022-11-27T09:21:42.627Z,6.40
2022-11-27T09:24:09.992Z,6.40
2022-11-27T09:26:36.783Z,6.40
2022-11-27T09:29:04.107Z,6.30
2022-11-27T09:31:31.045Z,6.40
2022-11-27T09:33:59.429Z,6.40
2022-11-27T09:36:27.125Z,6.40
2022-11-27T09:38:54.695Z,6.40
2022-11-27T09:41:38.808Z,6.50
2022-11-27T09:44:27.337Z,6.40
2022-11-27T09:46:56.563Z,6.40
2022-11-27T09:49:36.745Z,6.40
2022-11-27T09:52:24.436Z,6.30
2022-11-27T09:55:00.197Z,6.30
2022-11-27T09:57:34.478Z,6.30
2022-11-27T10:00:13.874Z,6.30
2022-11-27T10:02:42.120Z,6.40
2022-11-27T10:05:21.880Z,6.50
2022-11-27T10:08:06.388Z,6.50
2022-11-27T10:10:34.010Z,6.50
2022-11-27T10:13:26.567Z,6.60
2022-11-27T10:15:58.291Z,6.50
2022-11-27T10:18:40.624Z,6.50
2022-11-27T10:21:18.403Z,6.50
2022-11-27T10:23:51.084Z,6.60
2022-11-27T10:26:20.766Z,6.40
2022-11-27T10:28:47.521Z,6.40
2022-11-27T10:31:18.911Z,6.40
2022-11-27T10:33:55.940Z,6.50
2022-11-27T10:36:30.951Z,6.50
2022-11-27T10:39:00.254Z,6.50
2022-11-27T10:41:52.670Z,6.50
2022-11-27T10:44:34.176Z,6.40
2022-11-27T10:47:08.021Z,6.40
2022-11-27T10:49:38.765Z,6.40
2022-11-27T10:52:05.732Z,6.40
2022-11-27T10:54:39.466Z,6.40
2022-11-27T10:57:35.739Z,6.40
2022-11-27T11:00:11.096Z,6.40
2022-11-27T11:02:39.366Z,6.50
2022-11-27T11:05:37.317Z,6.50
2022-11-27T11:08:19.935Z,6.50
2022-11-27T11:10:58.775Z,6.50
2022-11-27T11:13:33.281Z,6.50
2022-11-27T11:16:33.372Z,6.40
2022-11-27T11:19:02.721Z,6.40
2022-11-27T11:21:33.485Z,6.50
2022-11-27T11:24:27.331Z,6.50
2022-11-27T11:27:16.312Z,6.50
2022-11-27T11:29:46.179Z,6.50
2022-11-27T11:32:15.790Z,6.40
2022-11-27T11:34:45.784Z,6.40
2022-11-27T11:37:29.067Z,6.40
2022-11-27T11:40:00.608Z,6.50
2022-11-27T11:42:31.541Z,6.40
2022-11-27T11:45:13.305Z,6.40
2022-11-27T11:47:59.636Z,6.50
2022-11-27T11:50:30.610Z,6.60
2022-11-27T11:53:25.464Z,6.70
2022-11-27T11:55:58.024Z,6.70
2022-11-27T11:58:39.935Z,6.70
2022-11-27T12:01:27.890Z,6.60
2022-11-27T12:04:13.595Z,6.70
2022-11-27T12:06:55.047Z,6.50
2022-11-27T12:09:27.907Z,6.50
2022-11-27T12:12:10.696Z,6.60
2022-11-27T12:15:31.686Z,6.60
2022-11-27T12:18:45.952Z,6.70
2022-11-27T12:21:17.110Z,6.70
2022-11-27T12:24:07.845Z,6.90
2022-11-27T12:26:46.362Z,6.90
2022-11-27T12:29:45.011Z,6.90
2022-11-27T12:32:43.636Z,6.90
2022-11-27T12:35:38.704Z,7.00
2022-11-27T12:38:11.329Z,7.00
2022-11-27T12:40:56.818Z,7.00
2022-11-27T12:43:25.177Z,7.00
2022-11-27T12:45:55.060Z,7.00
2022-11-27T12:48:25.315Z,7.00
2022-11-27T12:50:58.133Z,7.00
2022-11-27T12:53:25.301Z,7.00
2022-11-27T12:56:28.638Z,7.00
2022-11-27T12:58:59.163Z,7.10
2022-11-27T13:01:39.930Z,7.00
2022-11-27T13:04:31.947Z,7.00
2022-11-27T13:07:09.991Z,6.90
2022-11-27T13:09:42.772Z,6.90
2022-11-27T13:12:16.656Z,6.80
2022-11-27T13:14:49.798Z,6.80
2022-11-27T13:17:19.938Z,6.90
2022-11-27T13:19:49.766Z,6.90
2022-11-27T13:22:27.711Z,6.80
2022-11-27T13:24:56.553Z,6.80
2022-11-27T13:27:28.503Z,6.80
2022-11-27T13:30:03.428Z,6.80
2022-11-27T13:32:49.951Z,6.90
2022-11-27T13:35:36.838Z,6.90
2022-11-27T13:38:14.496Z,7.00
2022-11-27T13:40:44.244Z,6.90
2022-11-27T13:43:29.035Z,6.90
2022-11-27T13:46:07.930Z,6.90
2022-11-27T13:48:42.306Z,6.90
2022-11-27T13:51:11.659Z,6.90
2022-11-27T13:53:42.936Z,6.90
2022-11-27T13:56:10.654Z,6.90
2022-11-27T13:58:40.667Z,6.90
2022-11-27T14:01:13.789Z,6.90
2022-11-27T14:03:40.746Z,6.90
2022-11-27T14:06:27.833Z,6.80
2022-11-27T14:08:58.956Z,6.90
2022-11-27T14:11:42.742Z,6.80
2022-11-27T14:14:19.666Z,6.70
2022-11-27T14:17:05.594Z,6.60
2022-11-27T14:19:41.555Z,6.60
2022-11-27T14:22:17.273Z,6.50
2022-11-27T14:24:46.007Z,6.50
2022-11-27T14:27:17.949Z,6.50
2022-11-27T14:29:45.114Z,6.50
2022-11-27T14:32:14.037Z,6.50
2022-11-27T14:34:41.285Z,6.50
2022-11-27T14:37:21.306Z,6.50
2022-11-27T14:39:48.195Z,6.50
2022-11-27T14:42:29.536Z,6.50
2022-11-27T14:45:06.927Z,6.50
2022-11-27T14:47:34.787Z,6.50
2022-11-27T14:50:02.398Z,6.50
2022-11-27T14:52:29.541Z,6.50
2022-11-27T14:54:57.746Z,6.50
2022-11-27T14:57:30.407Z,6.60
2022-11-27T15:00:18.472Z,6.60
2022-11-27T15:02:47.412Z,6.60
2022-11-27T15:05:23.506Z,6.50
2022-11-27T15:07:54.077Z,6.50
2022-11-27T15:10:23.681Z,6.50
2022-11-27T15:12:50.953Z,6.50
2022-11-27T15:15:27.595Z,6.60
2022-11-27T15:18:02.389Z,6.50
2022-11-27T15:20:39.908Z,6.50
2022-11-27T15:23:21.181Z,6.50
2022-11-27T15:26:08.303Z,6.50
2022-11-27T15:28:51.323Z,6.50
2022-11-27T15:31:37.411Z,6.60
2022-11-27T15:34:21.758Z,6.60
2022-11-27T15:36:56.033Z,6.60
2022-11-27T15:39:38.397Z,6.60
2022-11-27T15:42:10.290Z,6.60
2022-11-27T15:44:38.722Z,6.60
2022-11-27T15:47:07.683Z,6.60
2022-11-27T15:49:35.009Z,6.60
2022-11-27T15:52:02.217Z,6.50
2022-11-27T15:54:29.492Z,6.60
2022-11-27T15:56:56.515Z,6.60
2022-11-27T15:59:25.144Z,6.60
2022-11-27T16:01:52.382Z,6.60
2022-11-27T16:04:19.352Z,6.50
2022-11-27T16:06:46.419Z,6.50
2022-11-27T16:09:13.488Z,6.50
2022-11-27T16:11:40.843Z,6.50
2022-11-27T16:14:07.702Z,6.50
2022-11-27T16:16:35.680Z,6.50
2022-11-27T16:19:05.579Z,6.50
2022-11-27T16:21:36.136Z,6.50
2022-11-27T16:24:05.945Z,6.50
2022-11-27T16:26:33.209Z,6.50
2022-11-27T16:29:00.174Z,6.60
2022-11-27T16:31:27.581Z,6.60
2022-11-27T16:33:54.701Z,6.60
2022-11-27T16:36:23.190Z,6.60
2022-11-27T16:38:52.737Z,6.60
2022-11-27T16:41:20.312Z,6.50
2022-11-27T16:43:49.904Z,6.50
2022-11-27T16:46:21.648Z,6.60
2022-11-27T16:48:50.413Z,6.60
2022-11-27T16:51:26.154Z,6.50
2022-11-27T16:53:55.112Z,6.50
2022-11-27T16:56:25.721Z,6.60
2022-11-27T16:58:56.711Z,6.50
2022-11-27T17:01:29.714Z,6.50
2022-11-27T17:03:58.341Z,6.50
2022-11-27T17:06:28.216Z,6.50
2022-11-27T17:08:56.910Z,6.60
2022-11-27T17:11:26.614Z,6.50
2022-11-27T17:13:56.713Z,6.50
2022-11-27T17:16:24.136Z,6.50
2022-11-27T17:18:51.742Z,6.50
2022-11-27T17:21:28.242Z,6.40
2022-11-27T17:23:57.348Z,6.40
2022-11-27T17:26:26.522Z,6.40
2022-11-27T17:28:57.930Z,6.40
2022-11-27T17:31:27.933Z,6.40
2022-11-27T17:33:57.101Z,6.30
2022-11-27T17:36:35.209Z,6.40
2022-11-27T17:39:05.552Z,6.30
2022-11-27T17:41:33.299Z,6.30
2022-11-27T17:44:00.919Z,6.30
2022-11-27T17:46:29.769Z,6.30
2022-11-27T17:48:59.391Z,6.30
2022-11-27T17:51:28.005Z,6.30
2022-11-27T17:53:55.318Z,6.30
2022-11-27T17:56:22.950Z,6.30
2022-11-27T17:58:50.251Z,6.20
2022-11-27T18:01:26.541Z,6.10
2022-11-27T18:04:00.365Z,6.00
2022-11-27T18:06:28.196Z,6.00
2022-11-27T18:08:58.392Z,6.00
2022-11-27T18:11:28.331Z,5.90
2022-11-27T18:13:55.239Z,5.90
2022-11-27T18:16:24.849Z,6.00
2022-11-27T18:18:52.710Z,6.00
2022-11-27T18:21:21.939Z,6.00
2022-11-27T18:24:21.508Z,6.00
2022-11-27T18:29:24.849Z,6.00
2022-11-27T18:31:53.718Z,6.00
2022-11-27T18:34:21.056Z,6.00
2022-11-27T18:36:47.940Z,6.00
2022-11-27T18:39:15.255Z,6.00
2022-11-27T18:41:42.194Z,6.00
2022-11-27T18:44:12.404Z,5.90
2022-11-27T18:46:39.915Z,6.00
2022-11-27T18:49:07.305Z,5.90
2022-11-27T18:51:34.965Z,5.90
2022-11-27T18:54:05.640Z,5.90
2022-11-27T18:56:33.180Z,5.90
2022-11-27T18:59:04.622Z,5.90
2022-11-27T19:01:39.644Z,5.90
2022-11-27T19:04:08.848Z,5.90
2022-11-27T19:06:38.285Z,5.90
2022-11-27T19:09:06.448Z,5.90
2022-11-27T19:11:37.035Z,5.90
2022-11-27T19:14:05.326Z,5.90
2022-11-27T19:16:46.741Z,5.80
2022-11-27T19:19:53.789Z,5.90
2022-11-27T19:22:07.895Z,5.90
2022-11-27T19:24:35.197Z,5.80
2022-11-27T19:27:02.626Z,5.80
2022-11-27T19:29:29.968Z,5.80
2022-11-27T19:31:59.356Z,5.80
2022-11-27T19:34:26.902Z,5.90
2022-11-27T19:36:54.375Z,5.90
2022-11-27T19:39:21.583Z,6.00
2022-11-27T19:41:48.497Z,6.00
2022-11-27T19:44:17.626Z,6.00
2022-11-27T19:46:46.882Z,6.10
2022-11-27T19:49:20.219Z,6.20
2022-11-27T19:51:47.709Z,6.20
2022-11-27T19:54:16.220Z,6.20
2022-11-27T19:56:44.107Z,6.20
2022-11-27T19:59:12.840Z,6.10
2022-11-27T20:01:41.071Z,6.10
2022-11-27T20:04:15.716Z,6.10
2022-11-27T20:06:43.095Z,6.00
2022-11-27T20:09:12.554Z,5.90
2022-11-27T20:11:40.147Z,5.90
2022-11-27T20:14:10.754Z,5.90
2022-11-27T20:16:39.448Z,5.90
2022-11-27T20:19:08.252Z,5.90
2022-11-27T20:21:37.182Z,5.90
2022-11-27T20:24:05.039Z,6.00
2022-11-27T20:26:32.242Z,5.90
2022-11-27T20:28:59.913Z,6.00
2022-11-27T20:31:35.524Z,6.00
2022-11-27T20:34:05.379Z,6.00
2022-11-27T20:36:40.541Z,6.00
2022-11-27T20:39:13.962Z,6.00
2022-11-27T20:41:43.725Z,6.00
2022-11-27T20:44:11.988Z,6.10
2022-11-27T20:46:40.410Z,6.10
2022-11-27T20:49:08.513Z,6.10
2022-11-27T20:51:35.399Z,6.10
2022-11-27T20:54:03.355Z,6.00
2022-11-27T20:56:31.553Z,6.00
2022-11-27T20:58:59.282Z,6.10
2022-11-27T21:01:31.886Z,6.00
2022-11-27T21:04:01.432Z,6.10
2022-11-27T21:06:30.726Z,6.00
2022-11-27T21:09:00.893Z,6.00
2022-11-27T21:11:29.663Z,6.00
2022-11-27T21:14:01.725Z,6.00
2022-11-27T21:16:30.974Z,6.00
2022-11-27T21:19:00.999Z,6.00
2022-11-27T21:21:28.718Z,6.00
2022-11-27T21:23:55.942Z,6.00
2022-11-27T21:26:26.491Z,6.10
2022-11-27T21:28:53.923Z,6.10
2022-11-27T21:31:23.617Z,6.10
2022-11-27T21:33:55.915Z,6.20
2022-11-27T21:36:25.339Z,6.10
2022-11-27T21:38:52.757Z,6.10
2022-11-27T21:41:20.216Z,6.00
2022-11-27T21:43:48.559Z,6.00
2022-11-27T21:46:19.409Z,5.90
2022-11-27T21:48:50.235Z,6.00
2022-11-27T21:51:17.735Z,5.90
2022-11-27T21:53:45.863Z,5.90
2022-11-27T21:56:14.902Z,5.90
2022-11-27T21:58:42.430Z,5.80
2022-11-27T22:01:15.880Z,5.90
2022-11-27T22:03:43.684Z,5.80
2022-11-27T22:06:16.249Z,5.90
2022-11-27T22:09:03.222Z,5.90
2022-11-27T22:11:33.223Z,5.90
2022-11-27T22:14:03.091Z,6.00
2022-11-27T22:16:33.077Z,6.00
2022-11-27T22:19:00.449Z,6.00
2022-11-27T22:21:29.183Z,6.00
2022-11-27T22:23:56.971Z,6.00
2022-11-27T22:26:25.172Z,5.90
2022-11-27T22:28:52.507Z,5.90
2022-11-27T22:31:28.089Z,5.90
2022-11-27T22:33:55.076Z,5.90
2022-11-27T22:36:28.004Z,5.90
2022-11-27T22:38:55.445Z,5.90
2022-11-27T22:41:24.504Z,5.90
2022-11-27T22:43:51.834Z,5.90
2022-11-27T22:46:21.782Z,5.90
2022-11-27T22:48:54.110Z,5.90
2022-11-27T22:51:22.259Z,5.90
2022-11-27T22:53:49.224Z,5.90
2022-11-27T22:56:16.381Z,5.90
2022-11-27T22:58:43.786Z,5.90
2022-11-27T23:01:16.970Z,5.90
2022-11-27T23:03:43.899Z,5.90
2022-11-27T23:06:12.902Z,5.90
2022-11-27T23:08:41.390Z,5.90
2022-11-27T23:11:09.623Z,6.00
2022-11-27T23:13:37.071Z,6.00
2022-11-27T23:16:06.191Z,5.90
2022-11-27T23:18:34.402Z,5.90
2022-11-27T23:21:09.365Z,5.90
2022-11-27T23:23:36.518Z,5.90
2022-11-27T23:26:17.439Z,6.00
2022-11-27T23:28:45.348Z,6.00
2022-11-27T23:31:29.425Z,5.90
2022-11-27T23:33:57.942Z,5.90
2022-11-27T23:36:25.329Z,5.90
2022-11-27T23:38:52.160Z,6.00
2022-11-27T23:41:22.663Z,5.90
2022-11-27T23:43:50.265Z,5.90
2022-11-27T23:46:19.535Z,5.90
2022-11-27T23:48:46.694Z,5.90
2022-11-27T23:51:16.011Z,5.90
2022-11-27T23:53:43.416Z,5.90
2022-11-27T23:56:13.464Z,5.90
2022-11-27T23:58:46.480Z,5.90
